createdAt,value
2019-02-16T00:00:43.677Z,8.60
2019-02-16T00:03:14.581Z,8.50
2019-02-16T00:05:43.856Z,8.60
2019-02-16T00:08:13.138Z,8.60
2019-02-16T00:10:42.428Z,8.60
2019-02-16T00:13:12.036Z,8.60
2019-02-16T00:15:41.322Z,8.60
2019-02-16T00:18:10.600Z,8.70
2019-02-16T00:20:39.882Z,8.70
2019-02-16T00:23:09.156Z,8.70
2019-02-16T00:25:38.426Z,8.70
2019-02-16T00:28:07.718Z,8.70
2019-02-16T00:30:37.256Z,8.70
2019-02-16T00:33:06.534Z,8.70
2019-02-16T00:35:35.805Z,8.70
2019-02-16T00:38:05.080Z,8.60
2019-02-16T00:40:34.347Z,8.60
2019-02-16T00:43:03.633Z,8.60
2019-02-16T00:45:32.909Z,8.60
2019-02-16T00:48:02.462Z,8.60
2019-02-16T00:50:32.068Z,8.60
2019-02-16T00:53:01.373Z,8.60
2019-02-16T00:55:30.970Z,8.60
2019-02-16T00:58:00.575Z,8.60
2019-02-16T01:00:30.192Z,8.50
2019-02-16T01:02:59.482Z,8.60
2019-02-16T01:05:28.770Z,8.60
2019-02-16T01:07:58.044Z,8.60
2019-02-16T01:10:27.333Z,8.70
2019-02-16T01:12:56.597Z,8.60
2019-02-16T01:15:25.883Z,8.60
2019-02-16T01:17:55.160Z,8.60
2019-02-16T01:20:24.445Z,8.60
2019-02-16T01:22:53.723Z,8.60
2019-02-16T01:25:22.998Z,8.60
2019-02-16T01:27:53.357Z,8.70
2019-02-16T01:30:22.642Z,8.60
2019-02-16T01:32:51.921Z,8.60
2019-02-16T01:35:21.226Z,8.70
2019-02-16T01:37:50.479Z,8.60
2019-02-16T01:40:19.777Z,8.70
2019-02-16T01:42:49.111Z,8.70
2019-02-16T01:45:18.625Z,8.70
2019-02-16T01:47:47.897Z,8.70
2019-02-16T01:50:17.178Z,8.70
2019-02-16T01:52:46.453Z,8.70
2019-02-16T01:55:15.730Z,8.70
2019-02-16T01:57:45.006Z,8.70
2019-02-16T02:00:14.284Z,8.60
2019-02-16T02:02:43.562Z,8.70
2019-02-16T02:05:12.843Z,8.70
2019-02-16T02:07:42.282Z,8.60
2019-02-16T02:10:11.556Z,8.60
2019-02-16T02:12:41.137Z,8.60
2019-02-16T02:15:11.085Z,8.70
2019-02-16T02:17:40.352Z,8.60
2019-02-16T02:20:09.814Z,8.60
2019-02-16T02:22:39.362Z,8.50
2019-02-16T02:25:10.496Z,8.50
2019-02-16T02:27:39.766Z,8.50
2019-02-16T02:30:10.884Z,8.40
2019-02-16T02:32:40.205Z,8.40
2019-02-16T02:35:09.825Z,8.50
2019-02-16T02:37:39.369Z,8.50
2019-02-16T02:40:08.814Z,8.50
2019-02-16T02:42:39.405Z,8.40
2019-02-16T02:45:10.862Z,8.40
2019-02-16T02:47:40.211Z,8.40
2019-02-16T02:50:09.502Z,8.30
2019-02-16T02:52:38.786Z,8.30
2019-02-16T02:55:08.674Z,8.30
2019-02-16T02:57:37.949Z,8.20
2019-02-16T03:00:09.898Z,8.30
2019-02-16T03:02:39.401Z,8.20
2019-02-16T03:05:10.144Z,8.20
2019-02-16T03:07:39.406Z,8.10
2019-02-16T03:10:08.927Z,8.10
2019-02-16T03:12:38.210Z,8.10
2019-02-16T03:15:07.778Z,8.10
2019-02-16T03:17:37.056Z,8.10
2019-02-16T03:20:06.818Z,8.10
2019-02-16T03:23:07.945Z,8.10
2019-02-16T03:25:37.233Z,8.10
2019-02-16T03:28:24.742Z,8.10
2019-02-16T03:31:29.717Z,8.00
2019-02-16T03:34:37.222Z,8.00
2019-02-16T03:37:26.478Z,7.90
2019-02-16T03:39:55.768Z,7.90
2019-02-16T03:42:25.290Z,7.90
2019-02-16T03:44:54.907Z,7.80
2019-02-16T03:47:24.501Z,7.80
2019-02-16T03:49:53.803Z,7.70
2019-02-16T03:52:23.414Z,7.80
2019-02-16T03:54:53.019Z,7.70
2019-02-16T03:57:22.624Z,7.50
2019-02-16T03:59:51.977Z,7.30
2019-02-16T04:02:21.250Z,7.40
2019-02-16T04:04:50.586Z,7.30
2019-02-16T04:07:19.865Z,7.30
2019-02-16T04:09:49.141Z,7.30
2019-02-16T04:12:18.451Z,7.20
2019-02-16T04:14:47.714Z,7.20
2019-02-16T04:17:17.002Z,7.10
2019-02-16T04:19:47.563Z,7.20
2019-02-16T04:22:24.290Z,7.20
2019-02-16T04:24:48.146Z,7.30
2019-02-16T04:27:17.429Z,7.30
2019-02-16T04:29:46.701Z,7.30
2019-02-16T04:32:15.989Z,7.30
2019-02-16T04:34:45.266Z,7.20
2019-02-16T04:37:14.822Z,7.20
2019-02-16T04:39:44.097Z,7.20
2019-02-16T04:42:13.625Z,7.20
2019-02-16T04:44:42.936Z,7.20
2019-02-16T04:47:12.231Z,7.20
2019-02-16T04:49:41.514Z,7.20
2019-02-16T04:52:10.800Z,7.10
2019-02-16T04:54:40.456Z,7.10
2019-02-16T04:57:09.937Z,7.10
2019-02-16T04:59:39.207Z,7.10
2019-02-16T05:02:08.485Z,7.10
2019-02-16T05:04:38.056Z,7.00
2019-02-16T05:07:07.342Z,7.00
2019-02-16T05:09:36.871Z,7.10
2019-02-16T05:12:06.470Z,7.10
2019-02-16T05:14:35.755Z,7.10
2019-02-16T05:17:05.033Z,7.10
2019-02-16T05:19:34.310Z,7.00
2019-02-16T05:22:03.602Z,7.00
2019-02-16T05:24:32.886Z,6.90
2019-02-16T05:27:02.474Z,6.90
2019-02-16T05:29:32.077Z,6.90
2019-02-16T05:32:01.370Z,6.90
2019-02-16T05:34:30.655Z,6.90
2019-02-16T05:37:00.185Z,6.90
2019-02-16T05:39:29.798Z,6.90
2019-02-16T05:41:59.074Z,6.80
2019-02-16T05:44:28.346Z,6.80
2019-02-16T05:46:57.629Z,6.90
2019-02-16T05:49:26.936Z,6.80
2019-02-16T05:51:56.223Z,6.90
2019-02-16T05:54:25.599Z,6.90
2019-02-16T05:56:55.210Z,6.90
2019-02-16T05:59:24.489Z,7.00
2019-02-16T06:01:54.420Z,7.00
2019-02-16T06:04:24.237Z,7.00
2019-02-16T06:06:53.524Z,6.90
2019-02-16T06:09:23.045Z,6.90
2019-02-16T06:11:52.685Z,6.90
2019-02-16T06:14:21.942Z,6.90
2019-02-16T06:16:51.233Z,6.80
2019-02-16T06:19:20.506Z,6.80
2019-02-16T06:21:49.790Z,6.80
2019-02-16T06:24:19.065Z,6.80
2019-02-16T06:26:48.675Z,6.80
2019-02-16T06:29:18.276Z,6.80
2019-02-16T06:31:47.564Z,6.80
2019-02-16T06:34:18.202Z,6.80
2019-02-16T06:36:47.491Z,6.80
2019-02-16T06:39:16.765Z,6.80
2019-02-16T06:41:46.059Z,6.70
2019-02-16T06:44:15.335Z,6.80
2019-02-16T06:46:44.614Z,6.70
2019-02-16T06:49:14.212Z,6.70
2019-02-16T06:51:43.496Z,6.70
2019-02-16T06:54:12.855Z,6.70
2019-02-16T06:56:43.776Z,6.70
2019-02-16T06:59:13.072Z,6.70
2019-02-16T07:01:42.333Z,6.70
2019-02-16T07:04:11.610Z,6.80
2019-02-16T07:06:40.909Z,6.60
2019-02-16T07:09:10.241Z,6.60
2019-02-16T07:11:39.525Z,6.60
2019-02-16T07:14:08.806Z,6.60
2019-02-16T07:16:39.726Z,6.60
2019-02-16T07:19:10.637Z,6.50
2019-02-16T07:21:39.921Z,6.50
2019-02-16T07:24:09.432Z,6.60
2019-02-16T07:26:38.714Z,6.60
2019-02-16T07:29:08.002Z,6.50
2019-02-16T07:31:37.542Z,6.60
2019-02-16T07:34:06.830Z,6.60
2019-02-16T07:36:36.113Z,6.70
2019-02-16T07:39:07.754Z,6.70
2019-02-16T07:41:37.031Z,6.70
2019-02-16T07:44:24.161Z,6.70
2019-02-16T07:46:58.546Z,6.80
2019-02-16T07:49:38.716Z,6.90
2019-02-16T07:52:09.647Z,6.90
2019-02-16T07:54:49.790Z,6.90
2019-02-16T07:57:21.050Z,7.00
2019-02-16T08:00:01.095Z,7.00
2019-02-16T08:02:33.099Z,7.10
2019-02-16T08:05:06.929Z,7.20
2019-02-16T08:07:37.854Z,7.30
2019-02-16T08:10:21.029Z,7.40
2019-02-16T08:13:03.956Z,7.50
2019-02-16T08:15:40.641Z,7.60
2019-02-16T08:18:11.875Z,7.70
2019-02-16T08:20:42.789Z,7.80
2019-02-16T08:23:13.715Z,7.90
2019-02-16T08:26:01.265Z,8.00
2019-02-16T08:28:32.526Z,8.10
2019-02-16T08:31:03.433Z,8.30
2019-02-16T08:33:46.394Z,8.50
2019-02-16T08:36:20.011Z,8.80
2019-02-16T08:38:53.893Z,9.10
2019-02-16T08:41:24.813Z,9.40
2019-02-16T08:43:58.534Z,9.90
2019-02-16T08:46:35.722Z,10.30
2019-02-16T08:49:09.084Z,10.70
2019-02-16T08:51:45.950Z,11.20
2019-02-16T08:54:16.883Z,11.60
2019-02-16T08:57:04.572Z,11.90
2019-02-16T08:59:35.514Z,12.20
2019-02-16T09:02:06.433Z,12.90
2019-02-16T09:04:37.623Z,13.10
2019-02-16T09:07:08.516Z,13.10
2019-02-16T09:09:42.655Z,13.20
2019-02-16T09:12:19.581Z,13.30
2019-02-16T09:14:53.181Z,13.50
2019-02-16T09:17:24.097Z,13.50
2019-02-16T09:20:11.241Z,13.70
2019-02-16T09:22:57.190Z,13.80
2019-02-16T09:25:31.098Z,13.90
2019-02-16T09:28:07.696Z,13.80
2019-02-16T09:30:44.545Z,13.80
2019-02-16T09:33:15.472Z,14.10
2019-02-16T09:35:52.763Z,14.20
2019-02-16T09:38:30.050Z,14.20
2019-02-16T09:41:19.189Z,14.20
2019-02-16T09:44:08.772Z,14.10
2019-02-16T09:46:45.796Z,13.80
2019-02-16T09:49:19.654Z,14.00
2019-02-16T09:51:53.258Z,14.20
2019-02-16T09:54:36.333Z,14.30
2019-02-16T09:57:19.629Z,14.40
2019-02-16T09:59:50.571Z,14.10
2019-02-16T10:02:21.507Z,14.20
2019-02-16T10:04:52.435Z,14.20
2019-02-16T10:07:26.077Z,14.00
2019-02-16T10:09:57.302Z,14.10
2019-02-16T10:12:34.398Z,14.30
2019-02-16T10:15:21.878Z,14.50
2019-02-16T10:18:09.335Z,14.80
2019-02-16T10:20:49.257Z,14.50
2019-02-16T10:23:32.712Z,14.70
2019-02-16T10:26:09.316Z,14.60
2019-02-16T10:28:52.252Z,14.90
2019-02-16T10:31:26.081Z,14.80
2019-02-16T10:33:57.005Z,14.60
2019-02-16T10:36:37.108Z,14.00
2019-02-16T10:39:11.217Z,14.10
2019-02-16T10:41:42.125Z,14.20
2019-02-16T10:44:16.171Z,14.40
2019-02-16T10:46:47.089Z,14.30
2019-02-16T10:49:18.018Z,14.60
2019-02-16T10:52:00.876Z,14.80
2019-02-16T10:54:47.093Z,14.80
2019-02-16T10:57:27.034Z,14.80
2019-02-16T11:00:00.654Z,14.90
2019-02-16T11:02:34.482Z,15.10
2019-02-16T11:05:09.149Z,15.40
2019-02-16T11:07:49.213Z,15.60
2019-02-16T11:10:25.841Z,15.70
2019-02-16T11:12:56.762Z,15.50
2019-02-16T11:15:33.605Z,15.50
2019-02-16T11:18:04.517Z,15.50
2019-02-16T11:20:35.449Z,15.70
2019-02-16T11:23:06.722Z,15.70
2019-02-16T11:25:37.963Z,15.60
2019-02-16T11:28:11.633Z,15.70
2019-02-16T11:30:45.309Z,15.80
2019-02-16T11:33:16.519Z,16.10
2019-02-16T11:36:04.149Z,16.20
2019-02-16T11:38:35.065Z,16.40
2019-02-16T11:41:22.164Z,16.40
2019-02-16T11:43:53.081Z,16.50
2019-02-16T11:46:26.957Z,16.70
2019-02-16T11:49:10.042Z,16.70
2019-02-16T11:51:43.810Z,16.70
2019-02-16T11:54:23.588Z,16.80
2019-02-16T11:56:57.851Z,17.00
2019-02-16T11:59:28.814Z,17.00
2019-02-16T12:02:00.066Z,17.20
2019-02-16T12:04:30.978Z,17.30
2019-02-16T12:07:14.088Z,17.30
2019-02-16T12:10:00.122Z,17.20
2019-02-16T12:12:31.167Z,17.20
2019-02-16T12:15:02.089Z,17.40
2019-02-16T12:17:37.121Z,17.40
2019-02-16T12:20:13.271Z,17.30
2019-02-16T12:22:47.139Z,17.30
2019-02-16T12:25:33.027Z,17.30
2019-02-16T12:28:06.878Z,17.50
2019-02-16T12:30:54.049Z,17.60
2019-02-16T12:33:43.297Z,17.40
2019-02-16T12:36:21.911Z,17.40
2019-02-16T12:39:04.547Z,17.20
2019-02-16T12:41:34.066Z,17.20
2019-02-16T12:44:21.483Z,17.20
2019-02-16T12:46:55.242Z,17.10
2019-02-16T12:49:26.427Z,17.10
2019-02-16T12:51:57.336Z,17.20
2019-02-16T12:54:34.102Z,17.40
2019-02-16T12:57:05.037Z,17.40
2019-02-16T12:59:38.639Z,17.50
2019-02-16T13:02:09.568Z,17.50
2019-02-16T13:04:40.831Z,17.40
2019-02-16T13:07:20.940Z,17.30
2019-02-16T13:09:51.861Z,17.30
2019-02-16T13:12:25.735Z,17.40
2019-02-16T13:14:58.035Z,17.30
2019-02-16T13:17:45.680Z,17.30
2019-02-16T13:20:22.593Z,17.10
2019-02-16T13:23:02.282Z,17.20
2019-02-16T13:25:48.518Z,17.30
2019-02-16T13:28:36.037Z,17.30
2019-02-16T13:31:25.109Z,17.40
2019-02-16T13:33:56.037Z,17.40
2019-02-16T13:36:42.163Z,17.30
2019-02-16T13:39:22.320Z,17.20
2019-02-16T13:41:53.245Z,17.10
2019-02-16T13:44:30.450Z,17.10
2019-02-16T13:47:10.813Z,17.10
2019-02-16T13:49:47.693Z,17.10
2019-02-16T13:52:30.778Z,17.10
2019-02-16T13:55:04.406Z,17.10
2019-02-16T13:57:51.842Z,17.20
2019-02-16T14:00:26.062Z,17.20
2019-02-16T14:03:12.567Z,17.30
2019-02-16T14:05:46.425Z,17.40
2019-02-16T14:08:34.005Z,17.40
2019-02-16T14:11:17.069Z,17.20
2019-02-16T14:13:50.950Z,17.20
2019-02-16T14:16:30.982Z,17.20
2019-02-16T14:19:00.261Z,17.20
2019-02-16T14:21:29.541Z,17.20
2019-02-16T14:23:59.091Z,17.20
2019-02-16T14:26:28.375Z,17.20
2019-02-16T14:28:57.651Z,17.20
2019-02-16T14:31:28.698Z,17.30
2019-02-16T14:33:57.911Z,17.20
2019-02-16T14:36:27.546Z,17.00
2019-02-16T14:38:58.453Z,17.00
2019-02-16T14:41:27.733Z,17.00
2019-02-16T14:43:57.081Z,17.00
2019-02-16T14:46:26.381Z,17.00
2019-02-16T14:48:55.653Z,17.10
2019-02-16T14:51:24.949Z,17.00
2019-02-16T14:53:54.438Z,17.00
2019-02-16T14:56:23.738Z,16.90
2019-02-16T14:58:53.014Z,16.80
2019-02-16T15:01:22.289Z,16.80
2019-02-16T15:03:51.890Z,16.80
2019-02-16T15:06:21.165Z,16.80
2019-02-16T15:08:50.460Z,16.90
2019-02-16T15:11:19.736Z,16.90
2019-02-16T15:13:49.022Z,16.90
2019-02-16T15:16:18.299Z,16.90
2019-02-16T15:18:48.022Z,16.90
2019-02-16T15:21:17.610Z,16.90
2019-02-16T15:23:46.899Z,16.90
2019-02-16T15:26:16.169Z,16.90
2019-02-16T15:28:45.450Z,17.00
2019-02-16T15:31:15.035Z,16.90
2019-02-16T15:33:44.318Z,16.90
2019-02-16T15:36:23.460Z,16.90
2019-02-16T15:38:45.429Z,16.90
2019-02-16T15:41:14.697Z,16.90
2019-02-16T15:43:44.298Z,16.90
2019-02-16T15:46:13.569Z,16.90
2019-02-16T15:48:43.095Z,16.90
2019-02-16T15:51:12.706Z,16.90
2019-02-16T15:53:41.989Z,16.90
2019-02-16T15:56:11.505Z,16.80
2019-02-16T15:58:40.809Z,16.80
2019-02-16T16:01:10.178Z,16.80
2019-02-16T16:03:39.522Z,16.70
2019-02-16T16:06:08.797Z,16.60
2019-02-16T16:08:39.717Z,16.50
2019-02-16T16:11:10.710Z,16.40
2019-02-16T16:13:57.888Z,16.30
2019-02-16T16:16:47.166Z,16.40
2019-02-16T16:19:34.516Z,17.00
2019-02-16T16:22:11.382Z,16.70
2019-02-16T16:24:57.529Z,16.40
2019-02-16T16:27:28.441Z,16.00
2019-02-16T16:30:02.262Z,15.50
2019-02-16T16:32:51.190Z,15.40
2019-02-16T16:35:22.117Z,15.20
2019-02-16T16:38:10.077Z,15.10
2019-02-16T16:40:59.246Z,14.90
2019-02-16T16:43:33.123Z,14.70
2019-02-16T16:46:21.381Z,14.40
2019-02-16T16:48:58.046Z,14.10
2019-02-16T16:51:29.313Z,14.00
2019-02-16T16:54:00.245Z,13.80
2019-02-16T16:56:48.403Z,13.70
2019-02-16T16:59:24.762Z,13.60
2019-02-16T17:02:13.893Z,13.20
2019-02-16T17:04:50.697Z,12.90
2019-02-16T17:07:27.380Z,12.80
2019-02-16T17:10:13.537Z,12.60
2019-02-16T17:12:50.746Z,12.40
2019-02-16T17:15:33.982Z,12.40
2019-02-16T17:18:07.594Z,12.30
2019-02-16T17:20:47.310Z,12.40
2019-02-16T17:23:30.247Z,12.40
2019-02-16T17:26:04.278Z,12.10
2019-02-16T17:28:35.510Z,11.90
2019-02-16T17:31:09.153Z,11.80
2019-02-16T17:33:48.894Z,11.70
2019-02-16T17:36:34.772Z,11.60
2019-02-16T17:39:12.714Z,11.60
2019-02-16T17:41:43.638Z,11.60
2019-02-16T17:44:32.645Z,11.40
2019-02-16T17:47:06.277Z,11.20
2019-02-16T17:49:40.135Z,11.20
2019-02-16T17:52:13.747Z,11.20
2019-02-16T17:54:44.742Z,11.10
2019-02-16T17:57:24.926Z,11.00
2019-02-16T17:59:59.149Z,10.90
2019-02-16T18:02:47.126Z,10.90
2019-02-16T18:05:21.001Z,10.80
2019-02-16T18:07:54.640Z,10.80
2019-02-16T18:10:37.933Z,10.60
2019-02-16T18:13:09.206Z,10.60
2019-02-16T18:15:40.146Z,10.60
2019-02-16T18:18:20.083Z,10.40
2019-02-16T18:20:51.338Z,10.30
2019-02-16T18:23:28.294Z,10.30
2019-02-16T18:26:15.470Z,10.30
2019-02-16T18:29:02.932Z,10.20
2019-02-16T18:31:43.020Z,10.10
2019-02-16T18:34:14.263Z,9.90
2019-02-16T18:36:48.087Z,9.80
2019-02-16T18:39:25.303Z,9.90
2019-02-16T18:41:59.464Z,9.90
2019-02-16T18:44:33.690Z,9.90
2019-02-16T18:47:04.603Z,9.90
2019-02-16T18:49:48.380Z,9.60
2019-02-16T18:52:25.025Z,9.50
2019-02-16T18:55:12.478Z,9.40
2019-02-16T18:57:52.617Z,9.30
2019-02-16T19:00:23.563Z,9.20
2019-02-16T19:03:00.702Z,9.10
2019-02-16T19:05:37.518Z,9.10
2019-02-16T19:08:10.979Z,9.10
2019-02-16T19:10:45.042Z,9.00
2019-02-16T19:13:18.664Z,9.00
2019-02-16T19:16:06.137Z,8.90
2019-02-16T19:18:39.765Z,8.90
2019-02-16T19:21:13.237Z,8.80
2019-02-16T19:23:53.627Z,8.90
2019-02-16T19:26:24.865Z,8.80
2019-02-16T19:29:12.607Z,8.80
2019-02-16T19:31:43.616Z,8.70
2019-02-16T19:34:32.638Z,8.60
2019-02-16T19:37:09.659Z,8.60
2019-02-16T19:39:43.309Z,8.60
2019-02-16T19:42:17.636Z,8.50
2019-02-16T19:44:51.289Z,8.50
2019-02-16T19:47:25.438Z,8.50
2019-02-16T19:49:59.035Z,8.50
2019-02-16T19:52:33.245Z,8.40
2019-02-16T19:55:23.192Z,8.50
2019-02-16T19:57:56.705Z,8.40
2019-02-16T20:00:27.982Z,8.30
2019-02-16T20:03:07.765Z,8.20
2019-02-16T20:05:38.697Z,8.10
2019-02-16T20:08:18.778Z,8.10
2019-02-16T20:10:49.795Z,8.10
2019-02-16T20:13:23.663Z,8.10
2019-02-16T20:15:57.309Z,8.00
2019-02-16T20:18:28.241Z,8.00
2019-02-16T20:21:02.426Z,7.90
2019-02-16T20:23:33.351Z,7.90
2019-02-16T20:26:04.332Z,7.90
2019-02-16T20:28:35.270Z,7.80
2019-02-16T20:31:06.207Z,7.80
2019-02-16T20:33:37.130Z,7.70
2019-02-16T20:36:20.346Z,7.70
2019-02-16T20:38:51.279Z,7.70
2019-02-16T20:41:38.839Z,7.60
2019-02-16T20:44:12.429Z,7.60
2019-02-16T20:46:49.401Z,7.50
2019-02-16T20:49:32.619Z,7.50
2019-02-16T20:52:03.871Z,7.60
2019-02-16T20:54:46.807Z,7.60
2019-02-16T20:57:17.737Z,7.60
2019-02-16T21:00:00.856Z,7.60
2019-02-16T21:02:32.858Z,7.50
2019-02-16T21:05:06.868Z,7.50
2019-02-16T21:07:43.721Z,7.50
2019-02-16T21:10:17.583Z,7.50
2019-02-16T21:13:00.793Z,7.60
2019-02-16T21:15:31.728Z,7.60
2019-02-16T21:18:02.649Z,7.50
2019-02-16T21:20:45.513Z,7.40
2019-02-16T21:23:19.582Z,7.40
2019-02-16T21:26:07.021Z,7.50
2019-02-16T21:28:46.835Z,7.40
2019-02-16T21:31:23.656Z,7.30
2019-02-16T21:33:57.494Z,7.30
2019-02-16T21:36:30.179Z,7.30
2019-02-16T21:39:17.552Z,7.30
2019-02-16T21:42:06.948Z,7.20
2019-02-16T21:44:37.882Z,7.10
2019-02-16T21:47:26.689Z,7.00
2019-02-16T21:49:57.602Z,7.00
2019-02-16T21:52:31.290Z,7.10
2019-02-16T21:55:06.316Z,7.10
2019-02-16T21:57:39.675Z,7.10
2019-02-16T22:00:27.758Z,7.10
2019-02-16T22:02:58.686Z,7.00
2019-02-16T22:05:33.530Z,6.90
2019-02-16T22:08:14.041Z,6.90
2019-02-16T22:11:00.069Z,6.90
2019-02-16T22:13:29.357Z,6.90
2019-02-16T22:15:59.615Z,6.90
2019-02-16T22:18:29.262Z,6.80
2019-02-16T22:20:58.558Z,6.90
2019-02-16T22:23:29.100Z,6.90
2019-02-16T22:25:58.693Z,7.00
2019-02-16T22:28:31.046Z,7.00
2019-02-16T22:30:59.127Z,7.00
2019-02-16T22:33:28.417Z,7.00
2019-02-16T22:35:57.697Z,7.00
2019-02-16T22:38:26.986Z,7.00
2019-02-16T22:40:56.271Z,6.90
2019-02-16T22:43:25.590Z,6.80
2019-02-16T22:45:54.845Z,6.60
2019-02-16T22:48:25.221Z,6.60
2019-02-16T22:50:54.498Z,6.50
2019-02-16T22:53:23.804Z,6.40
2019-02-16T22:55:53.213Z,6.50
2019-02-16T22:58:28.766Z,6.50
2019-02-16T23:00:54.402Z,6.60
2019-02-16T23:03:24.019Z,6.60
2019-02-16T23:05:53.642Z,6.50
2019-02-16T23:08:23.088Z,6.50
2019-02-16T23:10:52.808Z,6.50
2019-02-16T23:13:22.116Z,6.40
2019-02-16T23:15:51.418Z,6.30
2019-02-16T23:18:20.719Z,6.20
2019-02-16T23:20:50.286Z,6.20
2019-02-16T23:23:19.574Z,6.20
2019-02-16T23:25:48.858Z,6.20
2019-02-16T23:28:18.150Z,6.30
2019-02-16T23:30:47.440Z,6.30
2019-02-16T23:33:16.730Z,6.30
2019-02-16T23:35:46.013Z,6.40
2019-02-16T23:38:15.301Z,6.40
2019-02-16T23:40:44.589Z,6.30
2019-02-16T23:43:14.193Z,6.40
2019-02-16T23:45:43.857Z,6.40
2019-02-16T23:48:13.145Z,6.40
2019-02-16T23:50:42.427Z,6.30
2019-02-16T23:53:11.731Z,6.30
2019-02-16T23:55:41.116Z,6.20
2019-02-16T23:58:10.373Z,6.20
